Time,TemperatureF,DewpointF,PressureIn,WindDirection,WindDirectionDegrees,WindSpeedMPH,WindSpeedGustMPH,Humidity,HourlyPrecipIn,Conditions,Clouds,dailyrainin,SolarRadiationWatts/m^2,SoftwareType,DateUTC
2013-03-28 00:00:00,36.5,25.5,30.33,North,360,3.5,3.5,64,0.00,CLR,,0.00,0.0,WeatherDisplay:10.37,2013-03-28 04:00:00,
2013-03-28 00:01:00,36.5,25.8,30.33,North,5,5.0,5.0,65,0.00,CLR,,0.00,0.0,WeatherDisplay:10.37,2013-03-28 04:01:00,
2013-03-28 00:06:00,36.7,24.9,30.33,NNE,13,4.6,4.6,62,0.00,CLR,,0.00,0.0,WeatherDisplay:10.37,2013-03-28 04:06:00,
2013-03-28 00:12:00,37.4,25.9,30.33,NNE,12,5.8,5.8,63,0.00,CLR,,0.00,0.0,WeatherDisplay:10.37,2013-03-28 04:12:00,
2013-03-28 00:17:00,37.7,25.5,30.33,NNW,347,10.4,10.4,61,0.00,CLR,,0.00,0.0,WeatherDisplay:10.37,2013-03-28 04:17:00,
2013-03-28 00:22:00,37.3,25.8,30.33,NNW,347,3.5,3.5,63,0.00,CLR,,0.00,0.0,WeatherDisplay:10.37,2013-03-28 04:22:00,
2013-03-28 00:27:00,36.8,24.6,30.33,NE,55,2.3,2.3,61,0.00,CLR,,0.00,0.0,WeatherDisplay:10.37,2013-03-28 04:27:00,
2013-03-28 00:32:00,37.7,25.5,30.33,NE,51,6.9,6.9,61,0.00,CLR,,0.00,0.0,WeatherDisplay:10.37,2013-03-28 04:32:00,
2013-03-28 00:37:00,38.0,26.9,30.33,NE,40,6.9,6.9,64,0.00,CLR,,0.00,0.0,WeatherDisplay:10.37,2013-03-28 04:37:00,
2013-03-28 00:42:00,36.9,25.1,30.32,NE,40,3.5,3.5,62,0.00,CLR,,0.00,0.0,WeatherDisplay:10.37,2013-03-28 04:42:00,
2013-03-28 00:47:00,36.9,24.7,30.32,NE,40,0.0,0.0,61,0.00,CLR,,0.00,0.0,WeatherDisplay:10.37,2013-03-28 04:47:00,
2013-03-28 00:52:00,37.4,25.2,30.32,NE,41,8.1,8.1,61,0.00,CLR,,0.00,0.0,WeatherDisplay:10.37,2013-03-28 04:52:00,
2013-03-28 00:57:00,37.3,25.1,30.32,NE,42,3.5,3.5,61,0.00,CLR,,0.00,0.0,WeatherDisplay:10.37,2013-03-28 04:57:00,
2013-03-28 01:02:00,37.4,25.2,30.32,NE,42,3.5,3.5,61,0.00,CLR,,0.00,0.0,WeatherDisplay:10.37,2013-03-28 05:02:00,
2013-03-28 01:07:00,37.1,25.7,30.32,NE,42,5.8,5.8,63,0.00,CLR,,0.00,0.0,WeatherDisplay:10.37,2013-03-28 05:07:00,
2013-03-28 01:12:00,36.8,24.6,30.32,NE,42,0.0,0.0,61,0.00,CLR,,0.00,0.0,WeatherDisplay:10.37,2013-03-28 05:12:00,
2013-03-28 01:17:00,37.2,25.8,30.32,NE,39,3.0,3.0,63,0.00,CLR,,0.00,0.0,WeatherDisplay:10.37,2013-03-28 05:17:00,
2013-03-28 01:22:00,36.2,25.2,30.32,NE,39,3.5,3.5,64,0.00,CLR,,0.00,0.0,WeatherDisplay:10.37,2013-03-28 05:22:00,
2013-03-28 01:27:00,36.3,24.5,30.32,NE,40,5.8,5.8,62,0.00,CLR,,0.00,0.0,WeatherDisplay:10.37,2013-03-28 05:27:00,
2013-03-28 01:32:00,37.0,24.4,30.32,ENE,64,11.5,11.5,60,0.00,CLR,,0.00,0.0,WeatherDisplay:10.37,2013-03-28 05:32:00,
2013-03-28 01:37:00,38.0,24.9,30.32,NE,48,0.0,0.0,59,0.00,CLR,,0.00,0.0,WeatherDisplay:10.37,2013-03-28 05:37:00,
2013-03-28 01:42:00,38.0,25.3,30.32,NE,50,6.9,6.9,60,0.00,CLR,,0.00,0.0,WeatherDisplay:10.37,2013-03-28 05:42:00,
2013-03-28 01:47:00,38.0,24.5,30.32,NE,50,3.5,3.5,58,0.00,CLR,,0.00,0.0,WeatherDisplay:10.37,2013-03-28 05:47:00,
2013-03-28 01:52:00,37.6,25.0,30.32,NE,50,3.5,3.5,60,0.00,CLR,,0.00,0.0,WeatherDisplay:10.37,2013-03-28 05:52:00,
2013-03-28 01:57:00,37.6,24.6,30.32,NE,50,3.5,3.5,59,0.00,CLR,,0.00,0.0,WeatherDisplay:10.37,2013-03-28 05:57:00,
2013-03-28 02:02:00,37.5,25.3,30.32,NE,50,5.8,5.8,61,0.00,CLR,,0.00,0.0,WeatherDisplay:10.37,2013-03-28 06:02:00,
2013-03-28 02:07:00,37.5,24.1,30.32,NE,50,4.6,4.6,58,0.00,CLR,,0.00,0.0,WeatherDisplay:10.37,2013-03-28 06:07:00,
2013-03-28 02:12:00,38.1,24.6,30.32,ENE,69,6.0,6.0,58,0.00,CLR,,0.00,0.0,WeatherDisplay:10.37,2013-03-28 06:12:00,
2013-03-28 02:17:00,38.7,24.3,30.32,ENE,65,4.6,4.6,56,0.00,CLR,,0.00,0.0,WeatherDisplay:10.37,2013-03-28 06:17:00,
2013-03-28 02:22:00,39.0,24.6,30.32,ENE,71,9.2,9.2,56,0.00,CLR,,0.00,0.0,WeatherDisplay:10.37,2013-03-28 06:22:00,
2013-03-28 02:27:00,39.2,25.6,30.32,NE,52,10.4,10.4,58,0.00,CLR,,0.00,0.0,WeatherDisplay:10.37,2013-03-28 06:27:00,
2013-03-28 02:33:00,39.1,24.7,30.32,NE,40,6.0,6.4,56,0.00,CLR,,0.00,0.0,WeatherDisplay:10.37,2013-03-28 06:33:00,
2013-03-28 02:38:00,39.4,24.6,30.32,NE,37,6.9,6.9,55,0.00,CLR,,0.00,0.0,WeatherDisplay:10.37,2013-03-28 06:38:00,
2013-03-28 02:43:00,39.6,24.7,30.32,ENE,61,9.2,9.2,55,0.00,CLR,,0.00,0.0,WeatherDisplay:10.37,2013-03-28 06:43:00,
2013-03-28 02:48:00,39.7,24.4,30.32,NNE,21,8.1,8.1,54,0.00,CLR,,0.00,0.0,WeatherDisplay:10.37,2013-03-28 06:48:00,
2013-03-28 02:53:00,39.7,24.8,30.32,NE,38,4.6,4.6,55,0.00,CLR,,0.00,0.0,WeatherDisplay:10.37,2013-03-28 06:53:00,
2013-03-28 02:58:00,39.6,24.3,30.32,NE,53,5.0,5.0,54,0.00,CLR,,0.00,0.0,WeatherDisplay:10.37,2013-03-28 06:58:00,
2013-03-28 03:03:00,39.5,24.7,30.32,East,97,7.0,7.0,55,0.00,CLR,,0.00,0.0,WeatherDisplay:10.37,2013-03-28 07:03:00,
2013-03-28 03:08:00,39.0,24.6,30.32,East,88,9.2,9.2,56,0.00,CLR,,0.00,0.0,WeatherDisplay:10.37,2013-03-28 07:08:00,
2013-03-28 03:13:00,38.7,24.8,30.32,ENE,71,5.8,5.8,57,0.00,CLR,,0.00,0.0,WeatherDisplay:10.37,2013-03-28 07:13:00,
2013-03-28 03:18:00,38.6,24.7,30.32,East,79,7.0,7.0,57,0.00,CLR,,0.00,0.0,WeatherDisplay:10.37,2013-03-28 07:18:00,
2013-03-28 03:23:00,38.5,24.6,30.32,East,86,6.0,6.0,57,0.00,CLR,,0.00,0.0,WeatherDisplay:10.37,2013-03-28 07:23:00,
2013-03-28 03:28:00,38.5,24.6,30.32,ENE,78,6.9,6.9,57,0.00,CLR,,0.00,0.0,WeatherDisplay:10.37,2013-03-28 07:28:00,
2013-03-28 03:33:00,38.4,24.5,30.32,East,92,9.2,9.2,57,0.00,CLR,,0.00,0.0,WeatherDisplay:10.37,2013-03-28 07:33:00,
2013-03-28 03:38:00,38.4,24.5,30.32,ESE,110,11.5,11.5,57,0.00,CLR,,0.00,0.0,WeatherDisplay:10.37,2013-03-28 07:38:00,
2013-03-28 03:43:00,38.4,24.5,30.31,ENE,78,10.4,10.4,57,0.00,CLR,,0.00,0.0,WeatherDisplay:10.37,2013-03-28 07:43:00,
2013-03-28 03:48:00,38.3,24.4,30.31,East,93,10.4,10.4,57,0.00,CLR,,0.00,0.0,WeatherDisplay:10.37,2013-03-28 07:48:00,
2013-03-28 03:53:00,38.4,24.5,30.31,East,92,10.4,10.4,57,0.00,CLR,,0.00,0.0,WeatherDisplay:10.37,2013-03-28 07:53:00,
2013-03-28 03:58:00,38.4,24.5,30.31,East,82,9.2,9.2,57,0.00,CLR,,0.00,0.0,WeatherDisplay:10.37,2013-03-28 07:58:00,
2013-03-28 04:03:00,38.4,24.5,30.31,ENE,71,10.4,10.4,57,0.00,CLR,,0.00,0.0,WeatherDisplay:10.37,2013-03-28 08:03:00,
2013-03-28 04:08:00,38.4,24.5,30.31,ENE,75,6.9,6.9,57,0.00,CLR,,0.00,0.0,WeatherDisplay:10.37,2013-03-28 08:08:00,
2013-03-28 04:13:00,38.4,24.5,30.31,East,99,8.1,8.1,57,0.00,CLR,,0.00,0.0,WeatherDisplay:10.37,2013-03-28 08:13:00,
2013-03-28 04:18:00,38.3,24.4,30.31,East,88,10.4,10.4,57,0.00,CLR,,0.00,0.0,WeatherDisplay:10.37,2013-03-28 08:18:00,
2013-03-28 04:23:00,38.3,24.4,30.31,East,87,9.2,9.2,57,0.00,CLR,,0.00,0.0,WeatherDisplay:10.37,2013-03-28 08:23:00,
2013-03-28 04:28:00,38.3,24.4,30.31,East,92,6.9,6.9,57,0.00,CLR,,0.00,0.0,WeatherDisplay:10.37,2013-03-28 08:28:00,
2013-03-28 04:33:00,38.3,24.4,30.31,East,92,6.9,6.9,57,0.00,CLR,,0.00,0.0,WeatherDisplay:10.37,2013-03-28 08:33:00,
2013-03-28 04:38:00,38.3,24.4,30.31,East,90,6.9,6.9,57,0.00,CLR,,0.00,0.0,WeatherDisplay:10.37,2013-03-28 08:38:00,
2013-03-28 04:43:00,38.2,25.5,30.31,East,90,6.0,6.0,60,0.00,CLR,,0.00,0.0,WeatherDisplay:10.37,2013-03-28 08:43:00,
2013-03-28 04:48:00,36.9,25.1,30.31,East,91,2.3,2.3,62,0.00,CLR,,0.00,0.0,WeatherDisplay:10.37,2013-03-28 08:48:00,
2013-03-28 04:53:00,35.3,24.3,30.31,East,91,4.0,4.0,64,0.00,CLR,,0.00,0.0,WeatherDisplay:10.37,2013-03-28 08:53:00,
2013-03-28 04:58:00,34.6,24.4,30.31,East,91,5.0,5.0,66,0.00,CLR,,0.00,0.0,WeatherDisplay:10.37,2013-03-28 08:58:00,
2013-03-28 05:03:00,33.7,24.6,30.31,East,90,2.3,2.3,69,0.00,CLR,,0.00,0.0,WeatherDisplay:10.37,2013-03-28 09:03:00,
2013-03-28 05:08:00,33.4,24.0,30.31,East,92,5.8,5.8,68,0.00,CLR,,0.00,0.0,WeatherDisplay:10.37,2013-03-28 09:08:00,
2013-03-28 05:13:00,33.2,24.8,30.31,East,92,0.0,0.0,71,0.00,CLR,,0.00,0.0,WeatherDisplay:10.37,2013-03-28 09:13:00,
2013-03-28 05:18:00,32.6,24.6,30.31,East,92,0.0,0.0,72,0.00,CLR,,0.00,0.0,WeatherDisplay:10.37,2013-03-28 09:18:00,
2013-03-28 05:23:00,32.3,23.9,30.31,East,92,0.0,0.0,71,0.00,CLR,,0.00,0.0,WeatherDisplay:10.37,2013-03-28 09:23:00,
2013-03-28 05:28:00,32.3,24.3,30.32,East,92,2.3,0.0,72,0.00,CLR,,0.00,0.0,WeatherDisplay:10.37,2013-03-28 09:28:00,
2013-03-28 05:33:00,32.2,24.5,30.32,East,92,0.0,0.0,73,0.00,CLR,,0.00,0.0,WeatherDisplay:10.37,2013-03-28 09:33:00,
2013-03-28 05:38:00,31.8,24.1,30.32,East,92,0.0,0.0,73,0.00,CLR,,0.00,0.0,WeatherDisplay:10.37,2013-03-28 09:38:00,
2013-03-28 05:43:00,31.9,23.9,30.32,East,92,0.0,0.0,72,0.00,CLR,,0.00,0.0,WeatherDisplay:10.37,2013-03-28 09:43:00,
2013-03-28 05:48:00,32.2,24.2,30.32,East,92,0.0,0.0,72,0.00,CLR,,0.00,0.0,WeatherDisplay:10.37,2013-03-28 09:48:00,
2013-03-28 05:53:00,32.6,24.2,30.32,East,92,0.0,0.0,71,0.00,CLR,,0.00,0.0,WeatherDisplay:10.37,2013-03-28 09:53:00,
2013-03-28 05:58:00,32.7,24.7,30.33,East,92,0.0,0.0,72,0.00,CLR,,0.00,0.0,WeatherDisplay:10.37,2013-03-28 09:58:00,
2013-03-28 06:03:00,31.9,24.6,30.33,East,92,0.0,0.0,74,0.00,CLR,,0.00,0.0,WeatherDisplay:10.37,2013-03-28 10:03:00,
2013-03-28 06:08:00,31.5,24.5,30.33,East,92,0.0,0.0,75,0.00,CLR,,0.00,0.0,WeatherDisplay:10.37,2013-03-28 10:08:00,
2013-03-28 06:13:00,31.2,24.2,30.34,East,92,2.3,2.3,75,0.00,CLR,,0.00,0.0,WeatherDisplay:10.37,2013-03-28 10:13:00,
2013-03-28 06:18:00,30.9,24.2,30.34,East,92,3.5,3.6,76,0.00,CLR,,0.00,0.0,WeatherDisplay:10.37,2013-03-28 10:18:00,
2013-03-28 06:23:00,30.7,24.3,30.34,East,92,3.5,3.5,77,0.00,CLR,,0.00,0.0,WeatherDisplay:10.37,2013-03-28 10:23:00,
2013-03-28 06:28:00,30.6,23.9,30.34,East,92,3.5,3.5,76,0.00,CLR,,0.00,0.0,WeatherDisplay:10.37,2013-03-28 10:28:00,
2013-03-28 06:33:00,30.8,24.4,30.34,East,92,2.3,0.0,77,0.00,CLR,,0.00,0.0,WeatherDisplay:10.37,2013-03-28 10:33:00,
2013-03-28 06:38:00,30.9,24.2,30.34,East,92,4.0,4.0,76,0.00,CLR,,0.00,0.0,WeatherDisplay:10.37,2013-03-28 10:38:00,
2013-03-28 06:43:00,31.5,24.5,30.34,East,92,3.5,3.5,75,0.00,CLR,,0.00,0.0,WeatherDisplay:10.37,2013-03-28 10:43:00,
2013-03-28 06:48:00,31.8,24.5,30.34,East,92,4.0,4.0,74,0.00,CLR,,0.00,0.0,WeatherDisplay:10.37,2013-03-28 10:48:00,
2013-03-28 06:53:00,32.1,25.7,30.34,East,91,3.5,3.5,77,0.00,CLR,,0.00,0.0,WeatherDisplay:10.37,2013-03-28 10:53:00,
2013-03-28 06:58:00,32.5,24.5,30.34,East,91,4.6,4.6,72,0.00,CLR,,0.00,0.0,WeatherDisplay:10.37,2013-03-28 10:58:00,
2013-03-28 07:03:00,32.9,24.5,30.34,East,91,3.5,0.0,71,0.00,CLR,,0.00,0.0,WeatherDisplay:10.37,2013-03-28 11:03:00,
2013-03-28 07:08:00,33.3,23.9,30.35,East,91,2.0,2.0,68,0.00,CLR,,0.00,0.0,WeatherDisplay:10.37,2013-03-28 11:08:00,
2013-03-28 07:13:00,34.3,24.5,30.35,East,91,3.5,3.5,67,0.00,CLR,,0.00,0.0,WeatherDisplay:10.37,2013-03-28 11:13:00,
2013-03-28 07:18:00,34.8,24.2,30.35,East,91,0.0,0.0,65,0.00,CLR,,0.00,0.0,WeatherDisplay:10.37,2013-03-28 11:18:00,
2013-03-28 07:23:00,35.3,24.0,30.35,East,91,0.0,0.0,63,0.00,CLR,,0.00,0.0,WeatherDisplay:10.37,2013-03-28 11:23:00,
2013-03-28 07:28:00,35.6,25.4,30.36,East,91,0.0,0.0,66,0.00,CLR,,0.00,0.0,WeatherDisplay:10.37,2013-03-28 11:28:00,
2013-03-28 07:33:00,35.0,24.0,30.36,East,91,0.0,0.0,64,0.00,CLR,,0.00,7.0,WeatherDisplay:10.37,2013-03-28 11:33:00,
2013-03-28 07:38:00,34.8,24.2,30.36,East,91,0.0,0.0,65,0.00,CLR,,0.00,9.0,WeatherDisplay:10.37,2013-03-28 11:38:00,
2013-03-28 07:43:00,35.0,24.0,30.35,East,91,0.0,0.0,64,0.00,CLR,,0.00,12.0,WeatherDisplay:10.37,2013-03-28 11:43:00,
2013-03-28 07:48:00,34.5,25.0,30.36,East,91,0.0,0.0,68,0.00,CLR,,0.00,16.0,WeatherDisplay:10.37,2013-03-28 11:48:00,
2013-03-28 07:53:00,34.3,24.1,30.36,East,91,3.5,3.5,66,0.00,CLR,,0.00,19.0,WeatherDisplay:10.37,2013-03-28 11:53:00,
2013-03-28 07:58:00,34.9,23.9,30.36,East,92,4.6,4.6,64,0.00,CLR,,0.00,21.0,WeatherDisplay:10.37,2013-03-28 11:58:00,
2013-03-28 08:03:00,35.3,25.8,30.36,East,92,0.0,0.0,68,0.00,CLR,,0.00,25.0,WeatherDisplay:10.37,2013-03-28 12:03:00,
2013-03-28 08:08:00,34.2,24.7,30.36,East,92,3.5,3.5,68,0.00,CLR,,0.00,26.0,WeatherDisplay:10.37,2013-03-28 12:08:00,
2013-03-28 08:13:00,34.3,24.1,30.36,East,91,5.8,5.8,66,0.00,CLR,,0.00,28.0,WeatherDisplay:10.37,2013-03-28 12:13:00,
2013-03-28 08:18:00,35.2,24.2,30.36,East,90,3.5,3.5,64,0.00,CLR,,0.00,32.0,WeatherDisplay:10.37,2013-03-28 12:18:00,
2013-03-28 08:23:00,36.3,25.3,30.36,East,89,3.5,3.5,64,0.00,CLR,,0.00,33.0,WeatherDisplay:10.37,2013-03-28 12:23:00,
2013-03-28 08:28:00,36.6,24.4,30.37,East,89,4.6,4.6,61,0.00,CLR,,0.00,35.0,WeatherDisplay:10.37,2013-03-28 12:28:00,
2013-03-28 08:33:00,37.0,25.2,30.36,East,89,6.9,6.9,62,0.00,CLR,,0.00,37.0,WeatherDisplay:10.37,2013-03-28 12:33:00,
2013-03-28 08:38:00,37.3,24.7,30.36,East,90,5.8,5.8,60,0.00,CLR,,0.00,39.0,WeatherDisplay:10.37,2013-03-28 12:38:00,
2013-03-28 08:44:00,37.6,24.6,30.36,East,96,5.0,5.0,59,0.00,CLR,,0.00,40.0,WeatherDisplay:10.37,2013-03-28 12:44:00,
2013-03-28 08:49:00,38.0,24.5,30.37,East,95,4.0,4.0,58,0.00,CLR,,0.00,40.0,WeatherDisplay:10.37,2013-03-28 12:49:00,
2013-03-28 08:54:00,38.6,24.2,30.37,ENE,77,6.9,6.9,56,0.00,CLR,,0.00,42.0,WeatherDisplay:10.37,2013-03-28 12:54:00,
2013-03-28 08:59:00,39.0,24.6,30.37,ENE,77,3.5,3.5,56,0.00,CLR,,0.00,51.0,WeatherDisplay:10.37,2013-03-28 12:59:00,
2013-03-28 09:04:00,39.3,24.5,30.37,ENE,77,3.5,3.5,55,0.00,OVC,,0.00,76.0,WeatherDisplay:10.37,2013-03-28 13:04:00,
2013-03-28 09:09:00,39.7,24.4,30.37,East,80,3.5,3.5,54,0.00,OVC,,0.00,125.0,WeatherDisplay:10.37,2013-03-28 13:09:00,
2013-03-28 09:14:00,40.0,23.8,30.37,East,80,0.0,0.0,52,0.00,OVC,,0.00,153.0,WeatherDisplay:10.37,2013-03-28 13:14:00,
2013-03-28 09:19:00,40.2,24.9,30.37,East,79,3.5,3.5,54,0.00,OVC,,0.00,167.0,WeatherDisplay:10.37,2013-03-28 13:19:00,
2013-03-28 09:24:00,40.6,24.8,30.37,East,79,0.0,0.0,53,0.00,OVC,,0.00,214.0,WeatherDisplay:10.37,2013-03-28 13:24:00,
2013-03-28 09:29:00,41.1,24.8,30.37,East,79,5.8,5.8,52,0.00,OVC,,0.00,343.0,WeatherDisplay:10.37,2013-03-28 13:29:00,
2013-03-28 09:34:00,41.6,24.8,30.37,ENE,78,4.6,4.6,51,0.00,OVC,,0.00,360.0,WeatherDisplay:10.37,2013-03-28 13:34:00,
2013-03-28 09:39:00,42.1,25.7,30.37,ENE,78,3.5,3.5,52,0.00,OVC,,0.00,378.0,WeatherDisplay:10.37,2013-03-28 13:39:00,
2013-03-28 09:44:00,42.7,24.8,30.38,ENE,67,6.9,6.9,49,0.00,OVC,,0.00,396.0,WeatherDisplay:10.37,2013-03-28 13:44:00,
2013-03-28 09:49:00,43.1,25.2,30.38,ENE,66,6.9,6.9,49,0.00,OVC,,0.00,415.0,WeatherDisplay:10.37,2013-03-28 13:49:00,
2013-03-28 09:54:00,43.5,24.6,30.38,ENE,66,5.8,5.8,47,0.00,OVC,,0.00,434.0,WeatherDisplay:10.37,2013-03-28 13:54:00,
2013-03-28 09:59:00,43.9,24.9,30.38,NE,53,5.8,5.8,47,0.00,OVC,,0.00,452.0,WeatherDisplay:10.37,2013-03-28 13:59:00,
2013-03-28 10:04:00,44.1,23.6,30.38,NE,53,3.5,3.5,44,0.00,OVC,,0.00,469.0,WeatherDisplay:10.37,2013-03-28 14:04:00,
2013-03-28 10:09:00,44.3,23.7,30.38,North,350,11.5,11.5,44,0.00,OVC,,0.00,483.0,WeatherDisplay:10.37,2013-03-28 14:09:00,
2013-03-28 10:14:00,44.5,23.9,30.38,NNE,24,10.4,10.4,44,0.00,OVC,,0.00,501.0,WeatherDisplay:10.37,2013-03-28 14:14:00,
2013-03-28 10:19:00,44.7,23.5,30.38,North,355,5.8,5.8,43,0.00,OVC,,0.00,520.0,WeatherDisplay:10.37,2013-03-28 14:19:00,
2013-03-28 10:24:00,44.8,24.2,30.38,North,351,7.0,7.0,44,0.00,OVC,,0.00,545.0,WeatherDisplay:10.37,2013-03-28 14:24:00,
2013-03-28 10:29:00,45.1,23.9,30.38,NW,310,5.8,5.8,43,0.00,OVC,,0.00,552.0,WeatherDisplay:10.37,2013-03-28 14:29:00,
2013-03-28 10:34:00,45.1,22.8,30.38,NW,317,7.0,7.0,41,0.00,OVC,,0.00,568.0,WeatherDisplay:10.37,2013-03-28 14:34:00,
2013-03-28 10:39:00,45.3,23.0,30.38,NNW,338,5.8,5.8,41,0.00,OVC,,0.00,582.0,WeatherDisplay:10.37,2013-03-28 14:39:00,
2013-03-28 10:44:00,45.6,24.4,30.38,NW,310,13.0,13.0,43,0.00,OVC,,0.00,601.0,WeatherDisplay:10.37,2013-03-28 14:44:00,
2013-03-28 10:49:00,45.9,24.6,30.38,NE,42,10.0,10.0,43,0.00,OVC,,0.00,613.0,WeatherDisplay:10.37,2013-03-28 14:49:00,
2013-03-28 10:54:00,46.3,21.4,30.38,NNW,332,12.7,12.7,37,0.00,OVC,,0.00,633.0,WeatherDisplay:10.37,2013-03-28 14:54:00,
2013-03-28 10:59:00,46.3,20.8,30.38,NNW,332,15.0,15.0,36,0.00,OVC,,0.00,647.0,WeatherDisplay:10.37,2013-03-28 14:59:00,
2013-03-28 11:04:00,46.3,20.8,30.39,NNW,346,19.6,19.6,36,0.00,OVC,,0.00,659.0,WeatherDisplay:10.37,2013-03-28 15:04:00,
2013-03-28 11:09:00,46.3,22.0,30.39,NW,316,12.7,12.7,38,0.00,OVC,,0.00,671.0,WeatherDisplay:10.37,2013-03-28 15:09:00,
2013-03-28 11:14:00,46.5,19.6,30.38,NE,46,19.6,19.6,34,0.00,OVC,,0.00,687.0,WeatherDisplay:10.37,2013-03-28 15:14:00,
2013-03-28 11:19:00,46.7,21.8,30.39,NNW,330,9.2,9.2,37,0.00,OVC,,0.00,698.0,WeatherDisplay:10.37,2013-03-28 15:19:00,
2013-03-28 11:24:00,46.9,22.0,30.38,NNE,24,9.2,9.2,37,0.00,OVC,,0.00,710.0,WeatherDisplay:10.37,2013-03-28 15:24:00,
2013-03-28 11:29:00,47.6,23.2,30.39,NNE,29,16.1,16.1,38,0.00,OVC,,0.00,719.0,WeatherDisplay:10.37,2013-03-28 15:29:00,
2013-03-28 11:34:00,48.0,22.3,30.39,NNW,330,13.8,13.8,36,0.00,OVC,,0.00,729.0,WeatherDisplay:10.37,2013-03-28 15:34:00,
2013-03-28 11:39:00,48.5,24.0,30.39,NW,310,16.1,16.1,38,0.00,OVC,,0.00,740.0,WeatherDisplay:10.37,2013-03-28 15:39:00,
2013-03-28 11:44:00,48.7,21.5,30.38,NW,321,15.0,15.0,34,0.00,OVC,,0.00,751.0,WeatherDisplay:10.37,2013-03-28 15:44:00,
2013-03-28 11:49:00,48.8,22.3,30.39,North,355,15.0,15.0,35,0.00,OVC,,0.00,763.0,WeatherDisplay:10.37,2013-03-28 15:49:00,
2013-03-28 11:54:00,48.7,22.2,30.38,North,355,18.4,18.4,35,0.00,OVC,,0.00,772.0,WeatherDisplay:10.37,2013-03-28 15:54:00,
2013-03-28 11:59:00,49.0,21.1,30.39,NNW,338,19.6,19.6,33,0.00,OVC,,0.00,784.0,WeatherDisplay:10.37,2013-03-28 15:59:00,
2013-03-28 12:04:00,49.4,21.5,30.38,NE,45,15.0,15.0,33,0.00,OVC,,0.00,791.0,WeatherDisplay:10.37,2013-03-28 16:04:00,
2013-03-28 12:09:00,49.5,21.5,30.38,NNW,336,11.5,11.5,33,0.00,OVC,,0.00,798.0,WeatherDisplay:10.37,2013-03-28 16:09:00,
2013-03-28 12:14:00,49.9,24.6,30.38,NNW,340,11.5,11.5,37,0.00,OVC,,0.00,807.0,WeatherDisplay:10.37,2013-03-28 16:14:00,
2013-03-28 12:19:00,50.2,23.6,30.38,NE,49,6.9,6.9,35,0.00,OVC,,0.00,819.0,WeatherDisplay:10.37,2013-03-28 16:19:00,
2013-03-28 12:24:00,50.7,25.3,30.38,North,360,15.0,15.0,37,0.00,OVC,,0.00,828.0,WeatherDisplay:10.37,2013-03-28 16:24:00,
2013-03-28 12:29:00,50.9,22.8,30.37,North,351,12.7,12.7,33,0.00,OVC,,0.00,837.0,WeatherDisplay:10.37,2013-03-28 16:29:00,
2013-03-28 12:34:00,51.0,24.3,30.37,NNW,331,11.5,11.5,35,0.00,CLR,,0.00,844.0,WeatherDisplay:10.37,2013-03-28 16:34:00,
2013-03-28 12:39:00,51.2,23.8,30.37,NNW,343,11.5,11.5,34,0.00,CLR,,0.00,849.0,WeatherDisplay:10.37,2013-03-28 16:39:00,
2013-03-28 12:44:00,51.8,23.6,30.37,NNE,12,22.0,22.0,33,0.00,CLR,,0.00,853.0,WeatherDisplay:10.37,2013-03-28 16:44:00,
2013-03-28 12:49:00,52.1,24.6,30.37,NNW,338,14.0,14.0,34,0.00,CLR,,0.00,856.0,WeatherDisplay:10.37,2013-03-28 16:49:00,
2013-03-28 12:54:00,52.2,23.9,30.37,North,5,18.4,18.4,33,0.00,CLR,,0.00,867.0,WeatherDisplay:10.37,2013-03-28 16:54:00,
2013-03-28 12:59:00,52.3,25.4,30.36,NE,51,13.8,13.8,35,0.00,CLR,,0.00,872.0,WeatherDisplay:10.37,2013-03-28 16:59:00,
2013-03-28 13:04:00,52.8,26.6,30.36,NE,56,15.0,15.0,36,0.00,CLR,,0.00,877.0,WeatherDisplay:10.37,2013-03-28 17:04:00,
2013-03-28 13:09:00,52.8,25.9,30.36,North,5,13.8,13.8,35,0.00,CLR,,0.00,879.0,WeatherDisplay:10.37,2013-03-28 17:09:00,
2013-03-28 13:14:00,53.1,28.1,30.36,NNW,333,15.0,15.0,38,0.00,CLR,,0.00,881.0,WeatherDisplay:10.37,2013-03-28 17:14:00,
2013-03-28 13:19:00,53.4,26.4,30.36,NE,41,13.8,13.8,35,0.00,CLR,,0.00,886.0,WeatherDisplay:10.37,2013-03-28 17:19:00,
2013-03-28 13:24:00,53.7,29.3,30.35,NW,312,11.5,11.5,39,0.00,CLR,,0.00,889.0,WeatherDisplay:10.37,2013-03-28 17:24:00,
2013-03-28 13:29:00,54.2,25.7,30.35,NNW,327,19.6,19.6,33,0.00,CLR,,0.00,891.0,WeatherDisplay:10.37,2013-03-28 17:29:00,
2013-03-28 13:34:00,54.1,28.4,30.35,WNW,286,15.0,15.0,37,0.00,CLR,,0.00,895.0,WeatherDisplay:10.37,2013-03-28 17:34:00,
2013-03-28 13:39:00,54.2,26.4,30.34,NNE,13,20.7,20.7,34,0.00,CLR,,0.00,896.0,WeatherDisplay:10.37,2013-03-28 17:39:00,
2013-03-28 13:44:00,54.3,27.2,30.34,North,355,17.0,17.0,35,0.00,CLR,,0.00,900.0,WeatherDisplay:10.37,2013-03-28 17:44:00,
2013-03-28 13:49:00,54.0,26.2,30.34,NNW,333,18.4,18.4,34,0.00,CLR,,0.00,891.0,WeatherDisplay:10.37,2013-03-28 17:49:00,
2013-03-28 13:54:00,54.0,26.2,30.34,North,9,5.0,5.0,34,0.00,CLR,,0.00,893.0,WeatherDisplay:10.37,2013-03-28 17:54:00,
2013-03-28 13:59:00,54.5,28.7,30.34,West,277,13.0,13.0,37,0.00,CLR,,0.00,884.0,WeatherDisplay:10.37,2013-03-28 17:59:00,
2013-03-28 14:04:00,55.2,28.7,30.34,WNW,288,20.7,20.7,36,0.00,CLR,,0.00,889.0,WeatherDisplay:10.37,2013-03-28 18:04:00,
2013-03-28 14:09:00,55.4,28.2,30.34,NNW,336,19.6,19.6,35,0.00,CLR,,0.00,881.0,WeatherDisplay:10.37,2013-03-28 18:09:00,
2013-03-28 14:14:00,55.7,31.1,30.34,WNW,286,20.7,20.7,39,0.00,CLR,,0.00,881.0,WeatherDisplay:10.37,2013-03-28 18:14:00,
2013-03-28 14:19:00,56.0,30.7,30.34,WNW,300,19.6,19.6,38,0.00,CLR,,0.00,888.0,WeatherDisplay:10.37,2013-03-28 18:19:00,
2013-03-28 14:24:00,56.2,30.9,30.34,WNW,300,19.6,19.6,38,0.00,CLR,,0.00,875.0,WeatherDisplay:10.37,2013-03-28 18:24:00,
2013-03-28 14:29:00,55.8,29.2,30.33,NW,323,26.5,26.5,36,0.00,CLR,,0.00,867.0,WeatherDisplay:10.37,2013-03-28 18:29:00,
2013-03-28 14:34:00,55.8,30.5,30.33,NW,312,27.6,27.6,38,0.00,CLR,,0.00,886.0,WeatherDisplay:10.37,2013-03-28 18:34:00,
2013-03-28 14:39:00,55.9,28.6,30.33,NNW,337,23.0,23.0,35,0.00,CLR,,0.00,863.0,WeatherDisplay:10.37,2013-03-28 18:39:00,
2013-03-28 14:44:00,55.8,29.9,30.32,WNW,288,19.6,19.6,37,0.00,CLR,,0.00,868.0,WeatherDisplay:10.37,2013-03-28 18:44:00,
2013-03-28 14:49:00,56.0,30.1,30.32,West,268,16.1,16.1,37,0.00,CLR,,0.00,886.0,WeatherDisplay:10.37,2013-03-28 18:49:00,
2013-03-28 14:54:00,56.4,31.1,30.32,North,360,15.0,15.0,38,0.00,CLR,,0.00,865.0,WeatherDisplay:10.37,2013-03-28 18:54:00,
2013-03-28 14:59:00,56.4,29.1,30.32,North,355,19.6,19.6,35,0.00,CLR,,0.00,861.0,WeatherDisplay:10.37,2013-03-28 18:59:00,
2013-03-28 15:04:00,56.2,29.6,30.31,NW,320,18.4,18.4,36,0.00,CLR,,0.00,856.0,WeatherDisplay:10.37,2013-03-28 19:04:00,
2013-03-28 15:09:00,56.4,31.1,30.31,NW,320,19.6,19.6,38,0.00,CLR,,0.00,838.0,WeatherDisplay:10.37,2013-03-28 19:09:00,
2013-03-28 15:14:00,56.5,31.8,30.30,NW,304,19.6,19.6,39,0.00,CLR,,0.00,831.0,WeatherDisplay:10.37,2013-03-28 19:14:00,
2013-03-28 15:19:00,56.9,30.2,30.30,NW,315,16.1,16.1,36,0.00,CLR,,0.00,816.0,WeatherDisplay:10.37,2013-03-28 19:19:00,
2013-03-28 15:24:00,57.5,30.0,30.29,North,360,5.8,5.8,35,0.00,CLR,,0.00,817.0,WeatherDisplay:10.37,2013-03-28 19:24:00,
2013-03-28 15:30:00,57.5,30.7,30.30,NNW,331,20.0,20.0,36,0.00,CLR,,0.00,816.0,WeatherDisplay:10.37,2013-03-28 19:30:00,
2013-03-28 15:35:00,56.8,30.1,30.30,NNW,328,20.7,20.7,36,0.00,CLR,,0.00,807.0,WeatherDisplay:10.37,2013-03-28 19:35:00,
2013-03-28 15:40:00,56.7,31.4,30.29,WNW,284,12.7,12.7,38,0.00,CLR,,0.00,788.0,WeatherDisplay:10.37,2013-03-28 19:40:00,
2013-03-28 15:45:00,57.3,30.5,30.29,NNW,348,19.6,19.6,36,0.00,CLR,,0.00,782.0,WeatherDisplay:10.37,2013-03-28 19:45:00,
2013-03-28 15:50:00,57.4,31.3,30.29,North,355,18.4,18.4,37,0.00,CLR,,0.00,772.0,WeatherDisplay:10.37,2013-03-28 19:50:00,
2013-03-28 15:55:00,57.1,31.0,30.29,NNW,335,15.0,15.0,37,0.00,CLR,,0.00,752.0,WeatherDisplay:10.37,2013-03-28 19:55:00,
2013-03-28 16:00:00,56.8,30.1,30.29,NNW,335,17.0,17.0,36,0.00,CLR,,0.00,740.0,WeatherDisplay:10.37,2013-03-28 20:00:00,
2013-03-28 16:05:00,56.7,32.0,30.29,WNW,293,17.3,17.3,39,0.00,CLR,,0.00,735.0,WeatherDisplay:10.37,2013-03-28 20:05:00,
2013-03-28 16:10:00,56.9,32.2,30.28,NNE,14,11.0,11.0,39,0.00,BKN,,0.00,153.0,WeatherDisplay:10.37,2013-03-28 20:10:00,
2013-03-28 16:15:00,56.9,32.2,30.28,NNW,343,15.0,15.0,39,0.00,CLR,,0.00,715.0,WeatherDisplay:10.37,2013-03-28 20:15:00,
2013-03-28 16:20:00,57.0,31.0,30.28,NNE,17,7.0,20.0,37,0.00,CLR,,0.00,719.0,WeatherDisplay:10.37,2013-03-28 20:20:00,
2013-03-28 16:25:00,57.4,33.3,30.28,West,277,17.3,17.3,40,0.00,CLR,,0.00,710.0,WeatherDisplay:10.37,2013-03-28 20:25:00,
2013-03-28 16:30:00,57.3,31.2,30.28,WNW,289,21.9,21.9,37,0.00,CLR,,0.00,703.0,WeatherDisplay:10.37,2013-03-28 20:30:00,
2013-03-28 16:35:00,57.1,32.4,30.28,NW,318,25.3,25.3,39,0.00,FEW,,0.00,650.0,WeatherDisplay:10.37,2013-03-28 20:35:00,
2013-03-28 16:40:00,56.8,31.4,30.28,WNW,298,15.0,15.0,38,0.00,FEW,,0.00,640.0,WeatherDisplay:10.37,2013-03-28 20:40:00,
2013-03-28 16:45:00,56.7,33.2,30.28,WNW,303,26.5,26.5,41,0.00,FEW,,0.00,624.0,WeatherDisplay:10.37,2013-03-28 20:45:00,
2013-03-28 16:50:00,56.2,31.5,30.29,NNW,333,16.1,16.9,39,0.00,FEW,,0.00,617.0,WeatherDisplay:10.37,2013-03-28 20:50:00,
2013-03-28 16:55:00,56.1,32.1,30.29,NW,326,21.9,21.9,40,0.00,FEW,,0.00,606.0,WeatherDisplay:10.37,2013-03-28 20:55:00,
2013-03-28 17:00:00,56.1,32.7,30.29,North,355,23.0,23.0,41,0.00,SCT,,0.00,591.0,WeatherDisplay:10.37,2013-03-28 21:00:00,
2013-03-28 17:05:00,55.8,31.8,30.28,NNE,13,17.3,17.3,40,0.00,SCT,,0.00,575.0,WeatherDisplay:10.37,2013-03-28 21:05:00,
2013-03-28 17:10:00,55.6,31.6,30.29,NNE,27,19.6,19.6,40,0.00,SCT,,0.00,550.0,WeatherDisplay:10.37,2013-03-28 21:10:00,
2013-03-28 17:15:00,55.6,31.0,30.28,NNE,22,15.0,15.0,39,0.00,SCT,,0.00,533.0,WeatherDisplay:10.37,2013-03-28 21:15:00,
2013-03-28 17:20:00,55.7,31.7,30.28,NW,319,20.7,20.7,40,0.00,SCT,,0.00,520.0,WeatherDisplay:10.37,2013-03-28 21:20:00,
2013-03-28 17:25:00,55.6,32.2,30.28,North,360,16.1,16.1,41,0.00,SCT,,0.00,490.0,WeatherDisplay:10.37,2013-03-28 21:25:00,
2013-03-28 17:30:00,55.6,31.6,30.29,NW,314,16.1,16.1,40,0.00,SCT,,0.00,489.0,WeatherDisplay:10.37,2013-03-28 21:30:00,
2013-03-28 17:35:00,55.3,32.0,30.29,NW,317,18.4,18.4,41,0.00,BKN,,0.00,142.0,WeatherDisplay:10.37,2013-03-28 21:35:00,
2013-03-28 17:40:00,54.6,31.9,30.29,NNW,329,19.6,19.6,42,0.00,BKN,,0.00,104.0,WeatherDisplay:10.37,2013-03-28 21:40:00,
2013-03-28 17:45:00,54.4,31.8,30.29,NW,325,18.4,18.4,42,0.00,BKN,,0.00,132.0,WeatherDisplay:10.37,2013-03-28 21:45:00,
2013-03-28 17:50:00,54.0,31.4,30.29,North,5,21.0,21.5,42,0.00,BKN,,0.00,84.0,WeatherDisplay:10.37,2013-03-28 21:50:00,
2013-03-28 17:55:00,53.6,30.4,30.29,NNE,15,19.6,19.6,41,0.00,BKN,,0.00,202.0,WeatherDisplay:10.37,2013-03-28 21:55:00,
2013-03-28 18:00:00,53.9,31.3,30.29,NW,314,18.4,18.4,42,0.00,BKN,,0.00,378.0,WeatherDisplay:10.37,2013-03-28 22:00:00,
2013-03-28 18:05:00,54.5,33.0,30.29,NNW,333,15.0,15.0,44,0.00,BKN,,0.00,357.0,WeatherDisplay:10.37,2013-03-28 22:05:00,
2013-03-28 18:10:00,54.7,30.8,30.29,NNW,327,21.9,21.9,40,0.00,BKN,,0.00,339.0,WeatherDisplay:10.37,2013-03-28 22:10:00,
2013-03-28 18:15:00,54.6,31.3,30.29,North,360,17.3,17.3,41,0.00,BKN,,0.00,322.0,WeatherDisplay:10.37,2013-03-28 22:15:00,
2013-03-28 18:20:00,54.6,31.3,30.29,NNW,345,14.0,14.0,41,0.00,BKN,,0.00,302.0,WeatherDisplay:10.37,2013-03-28 22:20:00,
2013-03-28 18:25:00,54.6,31.9,30.29,NNW,346,16.0,16.0,42,0.00,BKN,,0.00,294.0,WeatherDisplay:10.37,2013-03-28 22:25:00,
2013-03-28 18:30:00,54.7,31.4,30.29,NW,325,13.8,13.8,41,0.00,BKN,,0.00,279.0,WeatherDisplay:10.37,2013-03-28 22:30:00,
2013-03-28 18:35:00,54.6,31.3,30.29,North,360,11.5,11.5,41,0.00,BKN,,0.00,257.0,WeatherDisplay:10.37,2013-03-28 22:35:00,
2013-03-28 18:40:00,54.6,31.9,30.29,NW,316,17.3,17.3,42,0.00,BKN,,0.00,232.0,WeatherDisplay:10.37,2013-03-28 22:40:00,
2013-03-28 18:45:00,54.7,32.0,30.29,North,349,11.5,11.5,42,0.00,BKN,,0.00,213.0,WeatherDisplay:10.37,2013-03-28 22:45:00,
2013-03-28 18:50:00,54.7,31.4,30.29,North,355,13.8,13.8,41,0.00,BKN,,0.00,195.0,WeatherDisplay:10.37,2013-03-28 22:50:00,
2013-03-28 18:55:00,54.5,31.9,30.30,North,10,15.0,15.0,42,0.00,BKN,,0.00,179.0,WeatherDisplay:10.37,2013-03-28 22:55:00,
2013-03-28 19:00:00,54.4,31.8,30.30,NNW,340,4.6,4.6,42,0.00,BKN,,0.00,163.0,WeatherDisplay:10.37,2013-03-28 23:00:00,
2013-03-28 19:05:00,54.3,31.7,30.30,NW,313,9.2,9.2,42,0.00,BKN,,0.00,137.0,WeatherDisplay:10.37,2013-03-28 23:05:00,
2013-03-28 19:10:00,54.1,32.6,30.30,NNW,327,5.8,5.8,44,0.00,BKN,,0.00,114.0,WeatherDisplay:10.37,2013-03-28 23:10:00,
2013-03-28 19:15:00,54.1,32.1,30.30,NW,311,11.5,11.5,43,0.00,BKN,,0.00,100.0,WeatherDisplay:10.37,2013-03-28 23:15:00,
2013-03-28 19:20:00,53.9,32.5,30.30,WNW,302,6.9,6.9,44,0.00,BKN,,0.00,83.0,WeatherDisplay:10.37,2013-03-28 23:20:00,
2013-03-28 19:25:00,53.6,32.2,30.31,NNW,340,9.2,9.2,44,0.00,BKN,,0.00,65.0,WeatherDisplay:10.37,2013-03-28 23:25:00,
2013-03-28 19:30:00,53.3,31.9,30.31,North,355,8.1,8.1,44,0.00,BKN,,0.00,49.0,WeatherDisplay:10.37,2013-03-28 23:30:00,
2013-03-28 19:35:00,53.0,31.1,30.31,North,355,13.0,13.0,43,0.00,CLR,,0.00,35.0,WeatherDisplay:10.37,2013-03-28 23:35:00,
2013-03-28 19:40:00,52.7,30.8,30.31,NNW,344,11.5,11.5,43,0.00,CLR,,0.00,21.0,WeatherDisplay:10.37,2013-03-28 23:40:00,
2013-03-28 19:45:00,52.5,30.0,30.31,NW,325,10.4,10.4,42,0.00,CLR,,0.00,14.0,WeatherDisplay:10.37,2013-03-28 23:45:00,
2013-03-28 19:50:00,52.2,30.4,30.31,NW,305,11.5,11.5,43,0.00,CLR,,0.00,9.0,WeatherDisplay:10.37,2013-03-28 23:50:00,
2013-03-28 19:55:00,51.9,30.1,30.31,NNW,346,10.4,10.4,43,0.00,CLR,,0.00,5.0,WeatherDisplay:10.37,2013-03-28 23:55:00,
2013-03-28 20:00:00,51.7,30.5,30.32,NNW,345,6.9,6.9,44,0.00,CLR,,0.00,0.0,WeatherDisplay:10.37,2013-03-29 00:00:00,
2013-03-28 20:05:00,51.3,30.1,30.32,NNW,343,12.7,12.7,44,0.00,CLR,,0.00,0.0,WeatherDisplay:10.37,2013-03-29 00:05:00,
2013-03-28 20:10:00,51.2,30.0,30.32,North,355,11.5,11.5,44,0.00,CLR,,0.00,0.0,WeatherDisplay:10.37,2013-03-29 00:10:00,
2013-03-28 20:15:00,51.1,29.9,30.32,NNW,336,11.5,11.5,44,0.00,CLR,,0.00,0.0,WeatherDisplay:10.37,2013-03-29 00:15:00,
2013-03-28 20:20:00,50.8,29.6,30.32,NW,319,10.4,10.4,44,0.00,CLR,,0.00,0.0,WeatherDisplay:10.37,2013-03-29 00:20:00,
2013-03-28 20:25:00,50.8,29.6,30.32,NNW,347,9.2,9.2,44,0.00,CLR,,0.00,0.0,WeatherDisplay:10.37,2013-03-29 00:25:00,
2013-03-28 20:30:00,50.6,30.0,30.32,NNW,348,9.2,9.2,45,0.00,CLR,,0.00,0.0,WeatherDisplay:10.37,2013-03-29 00:30:00,
2013-03-28 20:35:00,50.4,29.8,30.32,NNW,346,10.4,10.4,45,0.00,CLR,,0.00,0.0,WeatherDisplay:10.37,2013-03-29 00:35:00,
2013-03-28 20:40:00,50.3,29.7,30.32,NNW,340,7.0,7.0,45,0.00,CLR,,0.00,0.0,WeatherDisplay:10.37,2013-03-29 00:40:00,
2013-03-28 20:45:00,50.2,29.7,30.32,NNW,340,8.0,8.0,45,0.00,CLR,,0.00,0.0,WeatherDisplay:10.37,2013-03-29 00:45:00,
2013-03-28 20:50:00,50.1,29.6,30.32,North,355,9.2,9.2,45,0.00,CLR,,0.00,0.0,WeatherDisplay:10.37,2013-03-29 00:50:00,
2013-03-28 20:56:00,50.2,29.7,30.32,North,355,5.8,5.8,45,0.00,CLR,,0.00,0.0,WeatherDisplay:10.37,2013-03-29 00:56:00,
2013-03-28 21:01:00,50.0,30.0,30.33,NNW,338,11.5,11.5,46,0.00,CLR,,0.00,0.0,WeatherDisplay:10.37,2013-03-29 01:01:00,
2013-03-28 21:06:00,49.4,30.5,30.33,NNW,339,5.8,5.8,48,0.00,CLR,,0.00,0.0,WeatherDisplay:10.37,2013-03-29 01:06:00,
2013-03-28 21:11:00,48.9,30.1,30.33,NNW,332,11.5,11.5,48,0.00,CLR,,0.00,0.0,WeatherDisplay:10.37,2013-03-29 01:11:00,
2013-03-28 21:16:00,49.0,30.7,30.33,NNW,346,12.7,12.7,49,0.00,CLR,,0.00,0.0,WeatherDisplay:10.37,2013-03-29 01:16:00,
2013-03-28 21:21:00,49.1,30.2,30.33,NNW,348,10.4,10.4,48,0.00,CLR,,0.00,0.0,WeatherDisplay:10.37,2013-03-29 01:21:00,
2013-03-28 21:26:00,49.1,30.2,30.33,North,360,9.2,9.2,48,0.00,CLR,,0.00,0.0,WeatherDisplay:10.37,2013-03-29 01:26:00,
2013-03-28 21:31:00,49.1,30.2,30.33,NNW,340,6.9,6.9,48,0.00,CLR,,0.00,0.0,WeatherDisplay:10.37,2013-03-29 01:31:00,
2013-03-28 21:36:00,48.9,30.1,30.33,NNW,338,9.2,9.2,48,0.00,CLR,,0.00,0.0,WeatherDisplay:10.37,2013-03-29 01:36:00,
2013-03-28 21:41:00,48.7,29.9,30.33,NNW,340,7.0,7.0,48,0.00,CLR,,0.00,0.0,WeatherDisplay:10.37,2013-03-29 01:41:00,
2013-03-28 21:46:00,48.5,29.7,30.33,North,355,8.1,8.1,48,0.00,CLR,,0.00,0.0,WeatherDisplay:10.37,2013-03-29 01:46:00,
2013-03-28 21:51:00,48.5,29.7,30.33,North,9,5.8,5.8,48,0.00,CLR,,0.00,0.0,WeatherDisplay:10.37,2013-03-29 01:51:00,
2013-03-28 21:56:00,48.6,30.3,30.34,North,9,6.9,6.9,49,0.00,CLR,,0.00,0.0,WeatherDisplay:10.37,2013-03-29 01:56:00,
2013-03-28 22:02:00,48.6,30.3,30.34,North,355,7.0,7.0,49,0.00,CLR,,0.00,0.0,WeatherDisplay:10.37,2013-03-29 02:02:00,
2013-03-28 22:07:00,48.2,30.9,30.34,NNW,343,6.9,6.9,51,0.00,CLR,,0.00,0.0,WeatherDisplay:10.37,2013-03-29 02:07:00,
2013-03-28 22:12:00,47.4,30.6,30.34,North,355,8.1,8.1,52,0.00,CLR,,0.00,0.0,WeatherDisplay:10.37,2013-03-29 02:12:00,
2013-03-28 22:17:00,47.2,30.5,30.34,North,360,9.2,9.2,52,0.00,CLR,,0.00,0.0,WeatherDisplay:10.37,2013-03-29 02:17:00,
2013-03-28 22:22:00,47.4,30.2,30.34,North,360,5.8,5.8,51,0.00,CLR,,0.00,0.0,WeatherDisplay:10.37,2013-03-29 02:22:00,
2013-03-28 22:27:00,47.7,30.4,30.35,North,360,5.0,5.0,51,0.00,CLR,,0.00,0.0,WeatherDisplay:10.37,2013-03-29 02:27:00,
2013-03-28 22:32:00,47.4,30.2,30.35,North,360,4.6,4.6,51,0.00,CLR,,0.00,0.0,WeatherDisplay:10.37,2013-03-29 02:32:00,
2013-03-28 22:37:00,46.8,30.6,30.35,North,360,4.6,4.6,53,0.00,CLR,,0.00,0.0,WeatherDisplay:10.37,2013-03-29 02:37:00,
2013-03-28 22:42:00,46.2,30.0,30.35,North,360,3.5,3.5,53,0.00,CLR,,0.00,0.0,WeatherDisplay:10.37,2013-03-29 02:42:00,
2013-03-28 22:47:00,45.5,29.8,30.35,North,360,5.0,5.0,54,0.00,CLR,,0.00,0.0,WeatherDisplay:10.37,2013-03-29 02:47:00,
2013-03-28 22:52:00,45.1,29.9,30.35,North,360,5.0,5.0,55,0.00,CLR,,0.00,0.0,WeatherDisplay:10.37,2013-03-29 02:52:00,
2013-03-28 22:57:00,45.0,29.8,30.35,North,360,5.0,5.0,55,0.00,CLR,,0.00,0.0,WeatherDisplay:10.37,2013-03-29 02:57:00,
2013-03-28 23:02:00,44.7,30.0,30.35,North,360,3.5,3.5,56,0.00,CLR,,0.00,0.0,WeatherDisplay:10.37,2013-03-29 03:02:00,
2013-03-28 23:07:00,44.5,30.2,30.35,North,360,4.0,4.0,57,0.00,CLR,,0.00,0.0,WeatherDisplay:10.37,2013-03-29 03:07:00,
2013-03-28 23:12:00,44.0,29.7,30.35,North,360,5.0,5.0,57,0.00,CLR,,0.00,0.0,WeatherDisplay:10.37,2013-03-29 03:12:00,
2013-03-28 23:17:00,43.6,29.8,30.36,North,360,5.0,5.0,58,0.00,CLR,,0.00,0.0,WeatherDisplay:10.37,2013-03-29 03:17:00,
2013-03-28 23:22:00,43.1,29.7,30.35,North,360,5.8,5.8,59,0.00,CLR,,0.00,0.0,WeatherDisplay:10.37,2013-03-29 03:22:00,
2013-03-28 23:27:00,43.0,30.1,30.36,North,11,4.6,4.6,60,0.00,CLR,,0.00,0.0,WeatherDisplay:10.37,2013-03-29 03:27:00,
2013-03-28 23:32:00,42.5,30.4,30.36,NNE,12,5.8,5.8,62,0.00,CLR,,0.00,0.0,WeatherDisplay:10.37,2013-03-29 03:32:00,
2013-03-28 23:37:00,42.0,29.9,30.36,NNE,12,6.9,6.9,62,0.00,CLR,,0.00,0.0,WeatherDisplay:10.37,2013-03-29 03:37:00,
2013-03-28 23:42:00,41.6,29.1,30.36,NNE,12,5.8,5.8,61,0.00,CLR,,0.00,0.0,WeatherDisplay:10.37,2013-03-29 03:42:00,
2013-03-28 23:47:00,41.6,29.5,30.36,NNE,12,5.0,5.0,62,0.00,CLR,,0.00,0.0,WeatherDisplay:10.37,2013-03-29 03:47:00,
2013-03-28 23:52:00,41.5,30.2,30.36,NNE,32,5.8,5.8,64,0.00,CLR,,0.00,0.0,WeatherDisplay:10.37,2013-03-29 03:52:00,
2013-03-28 23:57:00,41.1,29.5,30.36,NNE,21,5.8,5.8,63,0.00,CLR,,0.00,0.0,WeatherDisplay:10.37,2013-03-29 03:57:00,